createdAt,value
2022-09-26T00:02:13.202Z,58.10
2022-09-26T00:07:06.440Z,57.97
2022-09-26T00:11:59.505Z,57.70
2022-09-26T00:16:57.856Z,57.53
2022-09-26T00:21:51.097Z,58.53
2022-09-26T00:26:44.251Z,59.12
2022-09-26T00:31:40.767Z,59.48
2022-09-26T00:36:38.327Z,59.64
2022-09-26T00:41:32.022Z,60.55
2022-09-26T00:46:31.711Z,61.37
2022-09-26T00:51:27.333Z,62.20
2022-09-26T00:56:26.954Z,62.90
2022-09-26T01:01:21.287Z,63.11
2022-09-26T01:06:15.433Z,62.86
2022-09-26T01:11:11.585Z,61.78
2022-09-26T01:16:09.637Z,59.40
2022-09-26T01:21:13.198Z,57.31
2022-09-26T01:26:44.372Z,55.35
2022-09-26T01:32:09.236Z,55.12
2022-09-26T01:37:10.906Z,57.20
2022-09-26T01:42:16.013Z,58.72
2022-09-26T01:47:15.795Z,59.74
2022-09-26T01:52:17.462Z,60.75
2022-09-26T01:57:15.024Z,60.18
2022-09-26T02:02:16.680Z,59.70
2022-09-26T02:07:15.003Z,59.39
2022-09-26T02:12:14.266Z,57.94
2022-09-26T02:17:11.840Z,56.69
2022-09-26T02:22:06.619Z,56.06
2022-09-26T02:26:59.895Z,56.26
2022-09-26T02:31:57.855Z,57.43
2022-09-26T02:36:51.296Z,58.33
2022-09-26T02:41:50.984Z,58.90
2022-09-26T02:47:21.908Z,59.18
2022-09-26T02:52:28.956Z,59.73
2022-09-26T02:57:35.393Z,60.09
2022-09-26T03:02:35.234Z,60.61
2022-09-26T03:07:47.711Z,61.01
2022-09-26T03:12:45.645Z,61.61
2022-09-26T03:17:44.001Z,61.86
2022-09-26T03:22:39.506Z,62.75
2022-09-26T03:27:35.971Z,62.75
2022-09-26T03:32:30.693Z,63.68
2022-09-26T03:37:24.126Z,63.81
2022-09-26T03:42:17.267Z,64.41
2022-09-26T03:47:13.124Z,64.47
2022-09-26T03:52:12.026Z,65.64
2022-09-26T03:57:05.800Z,65.57
2022-09-26T04:02:03.895Z,65.97
2022-09-26T04:06:57.817Z,66.19
2022-09-26T04:11:56.655Z,66.60
2022-09-26T04:16:50.243Z,67.31
2022-09-26T04:21:56.008Z,66.94
2022-09-26T04:26:50.205Z,67.02
2022-09-26T04:31:46.967Z,67.13
2022-09-26T04:36:46.340Z,67.10
2022-09-26T04:41:40.140Z,67.87
2022-09-26T04:46:33.446Z,67.25
2022-09-26T04:51:30.365Z,67.27
2022-09-26T04:56:26.574Z,67.14
2022-09-26T05:01:22.512Z,67.37
2022-09-26T05:06:29.235Z,67.09
2022-09-26T05:11:22.480Z,66.18
2022-09-26T05:16:17.335Z,67.05
2022-09-26T05:21:11.816Z,66.48
2022-09-26T05:26:21.262Z,67.25
2022-09-26T05:31:21.254Z,67.19
2022-09-26T05:36:15.083Z,67.39
2022-09-26T05:41:09.688Z,67.58
2022-09-26T05:46:05.716Z,67.28
2022-09-26T05:51:05.612Z,66.92
2022-09-26T05:55:58.994Z,66.90
2022-09-26T06:01:06.484Z,66.72
2022-09-26T06:06:03.138Z,66.56
2022-09-26T06:11:03.235Z,65.21
2022-09-26T06:15:57.576Z,65.07
2022-09-26T06:20:53.783Z,64.66
2022-09-26T06:25:47.256Z,64.41
2022-09-26T06:30:41.314Z,64.28
2022-09-26T06:35:41.360Z,63.26
2022-09-26T06:40:37.958Z,60.05
2022-09-26T06:45:32.285Z,54.72
2022-09-26T06:50:55.411Z,53.16
2022-09-26T06:55:55.183Z,52.11
2022-09-26T07:00:48.697Z,50.62
2022-09-26T07:06:02.213Z,51.64
2022-09-26T07:11:27.927Z,52.57
2022-09-26T07:16:14.673Z,53.66
2022-09-26T07:21:30.438Z,52.81
2022-09-26T07:26:33.875Z,53.29
2022-09-26T07:31:27.708Z,52.82
2022-09-26T07:36:33.472Z,51.68
2022-09-26T07:41:31.299Z,51.54
2022-09-26T07:46:45.362Z,51.16
2022-09-26T07:51:39.433Z,52.07
2022-09-26T07:56:37.385Z,50.08
2022-09-26T08:01:55.831Z,48.57
2022-09-26T08:07:00.865Z,48.57
2022-09-26T08:11:56.387Z,47.56
2022-09-26T08:17:13.465Z,46.45
2022-09-26T08:22:08.623Z,45.34
2022-09-26T08:27:01.978Z,44.70
2022-09-26T08:32:04.378Z,44.24
2022-09-26T08:37:02.457Z,43.15
2022-09-26T08:42:18.126Z,42.65
2022-09-26T08:47:42.758Z,42.02
2022-09-26T08:52:57.814Z,42.94
2022-09-26T08:57:55.427Z,43.57
2022-09-26T09:03:12.358Z,39.97
2022-09-26T09:08:15.193Z,42.25
2022-09-26T09:13:41.433Z,39.00
2022-09-26T09:19:13.010Z,37.73
2022-09-26T09:24:52.706Z,40.24
2022-09-26T09:30:03.235Z,40.40
2022-09-26T09:35:30.872Z,41.34
2022-09-26T09:40:42.543Z,42.61
2022-09-26T09:45:41.723Z,41.31
2022-09-26T09:50:43.690Z,39.69
2022-09-26T09:55:49.868Z,41.59
2022-09-26T10:00:51.334Z,41.62
2022-09-26T10:06:44.445Z,40.85
2022-09-26T10:11:32.683Z,39.39
2022-09-26T10:17:28.954Z,40.81
2022-09-26T10:22:38.004Z,40.24
2022-09-26T10:27:38.943Z,42.56
2022-09-26T10:32:42.642Z,41.25
2022-09-26T10:38:03.688Z,38.56
2022-09-26T10:43:21.021Z,38.31
2022-09-26T10:48:22.194Z,36.60
2022-09-26T10:53:38.299Z,35.83
2022-09-26T10:58:37.187Z,30.48
2022-09-26T11:03:41.889Z,30.26
2022-09-26T11:08:54.193Z,29.89
2022-09-26T11:14:07.604Z,29.49
2022-09-26T11:19:08.464Z,29.82
2022-09-26T11:24:11.890Z,31.12
2022-09-26T11:29:17.968Z,28.82
2022-09-26T11:34:33.981Z,28.80
2022-09-26T11:39:51.677Z,27.13
2022-09-26T11:44:56.755Z,27.83
2022-09-26T11:50:39.844Z,29.20
2022-09-26T11:55:55.197Z,28.09
2022-09-26T12:00:55.997Z,27.14
2022-09-26T12:05:56.404Z,26.78
2022-09-26T12:11:00.462Z,27.81
2022-09-26T12:15:59.397Z,25.94
2022-09-26T12:21:07.255Z,25.84
2022-09-26T12:26:11.044Z,26.31
2022-09-26T12:31:18.732Z,28.46
2022-09-26T12:36:22.744Z,29.06
2022-09-26T12:41:33.544Z,28.72
2022-09-26T12:46:48.318Z,30.03
2022-09-26T12:51:46.665Z,30.00
2022-09-26T12:56:48.400Z,29.91
2022-09-26T13:02:01.789Z,31.42
2022-09-26T13:07:18.825Z,29.88
2022-09-26T13:12:31.097Z,30.95
2022-09-26T13:17:33.338Z,31.62
2022-09-26T13:22:35.732Z,32.64
2022-09-26T13:27:36.255Z,33.23
2022-09-26T13:32:50.315Z,33.03
2022-09-26T13:37:56.648Z,34.45
2022-09-26T13:43:04.191Z,35.83
2022-09-26T13:48:08.305Z,34.98
2022-09-26T13:53:13.106Z,36.94
2022-09-26T13:58:19.324Z,37.96
2022-09-26T14:03:42.337Z,36.62
2022-09-26T14:08:54.861Z,37.37
2022-09-26T14:13:48.959Z,37.12
2022-09-26T14:18:58.034Z,39.30
2022-09-26T14:24:11.944Z,39.01
2022-09-26T14:29:26.426Z,38.88
2022-09-26T14:34:27.154Z,39.38
2022-09-26T14:39:32.014Z,38.42
2022-09-26T14:44:32.589Z,41.74
2022-09-26T14:49:30.243Z,41.31
2022-09-26T14:54:26.480Z,40.86
2022-09-26T14:59:40.292Z,38.66
2022-09-26T15:04:35.255Z,39.38
2022-09-26T15:09:43.740Z,40.88
2022-09-26T15:14:41.572Z,40.99
2022-09-26T15:19:40.909Z,42.38
2022-09-26T15:24:35.510Z,42.22
2022-09-26T15:29:29.454Z,39.93
2022-09-26T15:34:25.013Z,41.24
2022-09-26T15:39:54.158Z,40.65
2022-09-26T15:44:49.408Z,41.07
2022-09-26T15:49:42.716Z,41.31
2022-09-26T15:54:36.106Z,41.39
2022-09-26T15:59:40.055Z,41.33
2022-09-26T16:04:34.765Z,42.90
2022-09-26T16:09:33.671Z,42.47
2022-09-26T16:14:34.614Z,42.63
2022-09-26T16:19:35.139Z,43.34
2022-09-26T16:24:33.360Z,44.66
2022-09-26T16:29:38.438Z,44.37
2022-09-26T16:34:32.175Z,44.59
2022-09-26T16:39:28.950Z,45.33
2022-09-26T16:44:33.450Z,44.99
2022-09-26T16:49:40.500Z,45.64
2022-09-26T16:54:34.035Z,46.45
2022-09-26T16:59:32.386Z,47.09
2022-09-26T17:04:30.066Z,47.64
2022-09-26T17:09:29.384Z,48.56
2022-09-26T17:14:27.284Z,51.06
2022-09-26T17:19:21.891Z,52.48
2022-09-26T17:24:17.313Z,53.08
2022-09-26T17:29:21.127Z,53.29
2022-09-26T17:34:15.223Z,54.03
2022-09-26T17:39:14.590Z,54.09
2022-09-26T17:44:09.618Z,54.23
2022-09-26T17:49:05.570Z,53.82
2022-09-26T17:54:01.728Z,53.00
2022-09-26T17:58:55.550Z,52.42
2022-09-26T18:03:53.516Z,52.47
2022-09-26T18:08:48.596Z,52.51
2022-09-26T18:13:52.268Z,53.03
2022-09-26T18:18:45.771Z,54.99
2022-09-26T18:23:42.508Z,56.33
2022-09-26T18:28:39.203Z,56.81
2022-09-26T18:33:37.174Z,57.67
2022-09-26T18:38:43.325Z,58.07
2022-09-26T18:43:50.404Z,59.28
2022-09-26T18:48:44.653Z,59.32
2022-09-26T18:53:40.259Z,58.71
2022-09-26T18:58:37.149Z,59.74
2022-09-26T19:03:34.758Z,60.04
2022-09-26T19:08:35.830Z,60.71
2022-09-26T19:13:29.323Z,59.51
2022-09-26T19:18:22.760Z,59.20
2022-09-26T19:23:17.742Z,59.06
2022-09-26T19:28:15.644Z,58.96
2022-09-26T19:33:12.310Z,58.74
2022-09-26T19:38:15.869Z,58.59
2022-09-26T19:43:10.635Z,58.70
2022-09-26T19:48:06.346Z,58.46
2022-09-26T19:52:59.958Z,58.62
2022-09-26T19:57:54.478Z,59.89
2022-09-26T20:02:52.753Z,60.66
2022-09-26T20:07:46.263Z,60.97
2022-09-26T20:12:39.640Z,61.31
2022-09-26T20:17:33.271Z,60.89
2022-09-26T20:22:35.383Z,60.86
2022-09-26T20:27:33.073Z,60.97
2022-09-26T20:32:27.306Z,60.65
2022-09-26T20:37:25.656Z,60.71
2022-09-26T20:42:22.272Z,61.05
2022-09-26T20:47:21.254Z,61.47
2022-09-26T20:52:19.967Z,61.23
2022-09-26T20:57:13.370Z,60.36
2022-09-26T21:02:28.629Z,61.86
2022-09-26T21:07:23.524Z,62.72
2022-09-26T21:12:18.380Z,62.83
2022-09-26T21:17:18.511Z,64.73
2022-09-26T21:22:14.065Z,64.97
2022-09-26T21:27:12.394Z,66.08
2022-09-26T21:32:09.078Z,67.17
2022-09-26T21:37:03.984Z,67.15
2022-09-26T21:42:03.072Z,67.05
2022-09-26T21:46:56.383Z,66.79
2022-09-26T21:51:57.025Z,66.97
2022-09-26T21:56:55.178Z,67.50
2022-09-26T22:01:49.967Z,70.09
2022-09-26T22:06:43.313Z,71.83
2022-09-26T22:11:38.220Z,73.62
2022-09-26T22:16:31.499Z,74.82
2022-09-26T22:21:26.273Z,76.45
2022-09-26T22:26:20.469Z,77.39
2022-09-26T22:31:14.286Z,77.74
2022-09-26T22:36:08.042Z,78.97
2022-09-26T22:41:04.283Z,79.41
2022-09-26T22:46:03.342Z,75.75
2022-09-26T22:50:56.990Z,77.09
2022-09-26T22:55:54.883Z,76.22
2022-09-26T23:00:49.630Z,76.39
2022-09-26T23:05:42.977Z,75.51
2022-09-26T23:10:37.778Z,74.65
2022-09-26T23:15:31.919Z,74.60
2022-09-26T23:20:26.662Z,75.43
2022-09-26T23:25:19.894Z,75.56
2022-09-26T23:30:14.133Z,76.15
2022-09-26T23:35:08.099Z,75.61
2022-09-26T23:40:03.683Z,76.55
2022-09-26T23:44:57.038Z,76.49
2022-09-26T23:49:50.330Z,77.32
2022-09-26T23:54:43.649Z,77.09
2022-09-26T23:59:38.364Z,77.84
